createdAt,value
2023-06-28T06:48:53.318Z,2.70
2023-06-28T06:49:53.281Z,2.80
2023-06-28T06:50:54.430Z,2.80
2023-06-28T06:51:54.383Z,2.90
2023-06-28T06:52:54.369Z,3.00
2023-06-28T06:53:54.350Z,2.70
2023-06-28T06:54:54.352Z,2.80
2023-06-28T06:55:54.336Z,2.80
2023-06-28T06:56:54.283Z,2.90
2023-06-28T06:57:54.270Z,2.90
2023-06-28T06:58:54.256Z,2.90
2023-06-28T06:59:54.270Z,3.10
2023-06-28T07:00:54.220Z,2.80
2023-06-28T07:01:54.240Z,3.10
2023-06-28T07:02:54.219Z,3.00
2023-06-28T07:03:54.155Z,3.00
2023-06-28T07:04:54.194Z,2.90
2023-06-28T07:05:54.185Z,3.00
2023-06-28T07:06:54.135Z,3.00
2023-06-28T07:07:54.071Z,2.70
2023-06-28T07:08:54.107Z,2.80
2023-06-28T07:09:54.114Z,2.70
2023-06-28T07:10:54.020Z,2.80
2023-06-28T07:11:53.996Z,2.70
2023-06-28T07:12:53.989Z,2.60
2023-06-28T07:13:53.990Z,2.70
2023-06-28T07:14:53.944Z,2.80
2023-06-28T07:15:53.938Z,2.70
2023-06-28T07:16:53.934Z,2.60
2023-06-28T07:17:53.952Z,2.90
2023-06-28T07:18:55.334Z,2.80
2023-06-28T07:19:54.846Z,2.70
2023-06-28T07:20:53.859Z,2.50
2023-06-28T07:21:53.805Z,3.00
2023-06-28T07:22:53.824Z,2.90
2023-06-28T07:23:53.796Z,2.90
2023-06-28T07:24:53.760Z,2.50
2023-06-28T07:25:53.731Z,2.80
2023-06-28T07:26:53.709Z,2.90
2023-06-28T07:27:53.721Z,2.80
2023-06-28T07:28:53.674Z,2.80
2023-06-28T07:29:53.658Z,2.50
2023-06-28T07:30:53.641Z,2.50
2023-06-28T07:31:53.749Z,2.70
2023-06-28T07:32:53.674Z,2.60
2023-06-28T07:33:53.622Z,2.60
2023-06-28T07:34:53.590Z,2.20
2023-06-28T07:35:53.561Z,2.50
2023-06-28T07:36:53.657Z,2.30
2023-06-28T07:37:53.508Z,2.30
2023-06-28T07:38:53.510Z,2.30
2023-06-28T07:39:53.470Z,2.50
2023-06-28T07:40:53.448Z,2.40
2023-06-28T07:41:53.452Z,2.40
2023-06-28T07:42:53.419Z,2.50
2023-06-28T07:43:53.387Z,2.40
2023-06-28T07:44:53.380Z,2.40
2023-06-28T07:45:53.472Z,2.50
2023-06-28T07:46:53.370Z,2.40
2023-06-28T07:47:53.341Z,2.30
2023-06-28T07:48:53.301Z,2.60
2023-06-28T07:49:53.298Z,2.20
2023-06-28T07:50:53.328Z,2.10
2023-06-28T07:51:53.242Z,2.10
2023-06-28T07:52:53.220Z,2.10
2023-06-28T07:53:53.220Z,2.30
2023-06-28T07:54:53.196Z,2.20
2023-06-28T07:55:53.205Z,2.20
2023-06-28T07:56:53.153Z,2.30
2023-06-28T07:57:53.139Z,2.00
2023-06-28T07:58:53.132Z,2.10
2023-06-28T07:59:53.136Z,2.10
2023-06-28T08:00:53.145Z,1.80
2023-06-28T08:01:53.061Z,2.10
2023-06-28T08:02:53.088Z,2.10
2023-06-28T08:03:53.066Z,2.10
2023-06-28T08:04:53.030Z,2.20
2023-06-28T08:05:52.978Z,2.10
2023-06-28T08:06:52.986Z,2.00
2023-06-28T08:07:52.959Z,2.20
2023-06-28T08:08:52.926Z,2.00
2023-06-28T08:09:52.933Z,2.20
2023-06-28T08:10:52.896Z,2.10
2023-06-28T08:11:52.868Z,2.10
2023-06-28T08:12:52.855Z,2.20
2023-06-28T08:13:52.859Z,2.20
2023-06-28T08:14:52.847Z,1.90
2023-06-28T08:15:52.789Z,2.00
2023-06-28T08:16:52.773Z,2.30
2023-06-28T08:17:52.814Z,2.10
2023-06-28T08:18:52.769Z,2.00
2023-06-28T08:19:52.717Z,2.30
2023-06-28T08:20:52.746Z,2.50
2023-06-28T08:21:52.687Z,1.90
2023-06-28T08:22:52.681Z,2.30
2023-06-28T08:23:52.669Z,2.20
2023-06-28T08:24:52.623Z,2.40
2023-06-28T08:25:52.607Z,2.40
2023-06-28T08:26:52.579Z,2.30
2023-06-28T08:27:52.597Z,2.40
2023-06-28T08:29:00.183Z,2.40
2023-06-28T08:29:54.538Z,2.40
2023-06-28T08:30:52.530Z,2.40
2023-06-28T08:31:52.526Z,2.30
2023-06-28T08:32:52.580Z,2.20
2023-06-28T08:33:52.457Z,2.20
2023-06-28T08:34:52.464Z,2.10
2023-06-28T08:35:52.443Z,2.20
2023-06-28T08:36:52.439Z,2.10
2023-06-28T08:37:52.417Z,2.00
2023-06-28T08:38:52.401Z,2.30
2023-06-28T08:39:52.433Z,2.30
2023-06-28T08:40:52.338Z,2.20
2023-06-28T08:41:52.344Z,2.20
2023-06-28T08:42:52.315Z,2.20
2023-06-28T08:43:52.280Z,2.10
2023-06-28T08:44:52.270Z,2.10
2023-06-28T08:45:52.257Z,2.30
2023-06-28T08:46:52.320Z,2.20
2023-06-28T08:47:52.222Z,2.40
2023-06-28T08:48:52.182Z,2.20
2023-06-28T08:49:52.169Z,2.30
2023-06-28T08:50:52.185Z,2.10
2023-06-28T08:51:52.177Z,2.10
2023-06-28T08:52:53.117Z,2.40
2023-06-28T08:53:52.093Z,2.20
2023-06-28T08:54:52.086Z,2.40
2023-06-28T08:55:52.087Z,2.40
2023-06-28T08:57:10.353Z,2.40
2023-06-28T08:57:54.071Z,2.50
2023-06-28T08:58:52.088Z,2.50
2023-06-28T08:59:51.988Z,2.40
2023-06-28T09:00:52.009Z,2.60
2023-06-28T09:01:51.980Z,2.50
2023-06-28T09:02:51.993Z,2.50
2023-06-28T09:03:52.008Z,2.40
2023-06-28T09:04:51.953Z,2.70
2023-06-28T09:05:51.913Z,2.30
2023-06-28T09:06:51.918Z,2.40
2023-06-28T09:07:51.845Z,2.20
2023-06-28T09:08:51.831Z,2.30
2023-06-28T09:09:51.842Z,2.30
2023-06-28T09:10:51.820Z,2.10
2023-06-28T09:11:51.774Z,2.10
2023-06-28T09:12:51.764Z,2.20
2023-06-28T09:13:51.752Z,2.20
2023-06-28T09:14:51.770Z,1.90
2023-06-28T09:15:51.705Z,2.20
2023-06-28T09:16:51.718Z,1.80
2023-06-28T09:17:51.791Z,2.10
2023-06-28T09:18:51.676Z,2.10
2023-06-28T09:19:51.658Z,1.80
2023-06-28T09:20:51.608Z,2.00
2023-06-28T09:21:51.596Z,2.00
2023-06-28T09:22:51.583Z,2.50
2023-06-28T09:23:51.587Z,2.20
2023-06-28T09:24:51.547Z,2.10
2023-06-28T09:25:52.406Z,2.10
2023-06-28T09:26:51.502Z,2.20
2023-06-28T09:27:51.489Z,2.10
2023-06-28T09:28:51.509Z,2.30
2023-06-28T09:29:51.446Z,2.30
2023-06-28T09:30:51.451Z,2.40
2023-06-28T09:31:51.430Z,2.30
2023-06-28T09:32:51.482Z,2.40
2023-06-28T09:33:54.957Z,2.20
2023-06-28T09:34:52.361Z,2.00
2023-06-28T09:35:51.377Z,1.80
2023-06-28T09:36:51.435Z,2.10
2023-06-28T09:37:51.357Z,2.10
2023-06-28T09:38:51.292Z,2.00
2023-06-28T09:39:51.267Z,1.90
2023-06-28T09:40:51.271Z,2.10
2023-06-28T09:41:51.236Z,2.00
2023-06-28T09:42:51.271Z,2.00
2023-06-28T09:43:51.205Z,2.20
2023-06-28T09:44:51.264Z,2.30
2023-06-28T09:45:51.245Z,2.00
2023-06-28T09:46:51.217Z,1.90
2023-06-28T09:47:51.186Z,2.20
2023-06-28T09:48:51.106Z,2.20
2023-06-28T09:49:51.080Z,2.10
2023-06-28T09:50:51.063Z,1.90
2023-06-28T09:51:51.073Z,1.90
2023-06-28T09:52:51.025Z,2.00
2023-06-28T09:53:51.003Z,2.20
2023-06-28T09:54:51.010Z,2.10
2023-06-28T09:55:50.984Z,2.10
2023-06-28T09:56:50.982Z,1.70
2023-06-28T09:57:50.935Z,2.00
2023-06-28T09:58:50.955Z,1.80
2023-06-28T09:59:50.903Z,1.70
2023-06-28T10:00:51.263Z,1.80
2023-06-28T10:01:50.891Z,2.00
2023-06-28T10:02:50.946Z,2.10
2023-06-28T10:03:50.973Z,2.30
2023-06-28T10:04:50.900Z,2.10
2023-06-28T10:05:50.824Z,2.10
2023-06-28T10:06:50.803Z,2.00
2023-06-28T10:07:50.751Z,2.00
2023-06-28T10:08:52.567Z,1.70
2023-06-28T10:09:50.742Z,2.00
2023-06-28T10:10:50.722Z,1.90
2023-06-28T10:11:50.678Z,2.00
2023-06-28T10:12:50.654Z,1.90
2023-06-28T10:13:50.638Z,1.80
2023-06-28T10:14:50.656Z,2.20
2023-06-28T10:15:50.616Z,1.90
2023-06-28T10:16:50.675Z,1.80
2023-06-28T10:17:50.614Z,1.90
2023-06-28T10:18:50.544Z,2.30
2023-06-28T10:19:50.565Z,2.20
2023-06-28T10:20:50.514Z,1.90
2023-06-28T10:21:50.500Z,2.00
2023-06-28T10:22:50.480Z,1.70
2023-06-28T10:23:50.492Z,1.90
2023-06-28T10:24:50.467Z,1.90
2023-06-28T10:25:50.423Z,1.90
2023-06-28T10:26:50.404Z,2.00
2023-06-28T10:27:50.388Z,1.90
2023-06-28T10:28:50.452Z,1.90
2023-06-28T10:29:50.352Z,1.80
2023-06-28T10:30:50.368Z,1.80
2023-06-28T10:31:51.119Z,1.80
2023-06-28T10:32:51.370Z,2.00
2023-06-28T10:33:50.311Z,1.70
2023-06-28T10:34:50.263Z,2.00
2023-06-28T10:35:50.248Z,2.20
2023-06-28T10:36:50.223Z,1.90
2023-06-28T10:37:50.734Z,2.00
2023-06-28T10:38:51.221Z,2.00
2023-06-28T10:39:50.168Z,2.00
2023-06-28T10:40:50.151Z,2.00
2023-06-28T10:41:50.134Z,2.00
2023-06-28T10:42:50.146Z,1.80
2023-06-28T10:43:50.092Z,1.80
2023-06-28T10:44:50.081Z,1.90
2023-06-28T10:45:50.109Z,1.80
2023-06-28T10:46:50.122Z,2.10
2023-06-28T10:47:50.081Z,1.90
2023-06-28T10:48:50.007Z,1.80
2023-06-28T10:49:50.320Z,1.70
2023-06-28T10:50:50.977Z,1.60
2023-06-28T10:51:49.991Z,1.60
2023-06-28T10:52:49.968Z,1.50
2023-06-28T10:53:49.948Z,1.70
2023-06-28T10:54:49.933Z,1.70
2023-06-28T10:55:49.881Z,1.80
2023-06-28T10:56:49.892Z,1.70
2023-06-28T10:57:49.847Z,1.60
2023-06-28T10:58:49.838Z,1.70
2023-06-28T10:59:49.808Z,1.80
2023-06-28T11:00:49.811Z,1.80
2023-06-28T11:01:49.838Z,1.80
2023-06-28T11:02:49.784Z,1.70
2023-06-28T11:03:49.739Z,1.70
2023-06-28T11:04:49.721Z,1.70
2023-06-28T11:05:49.728Z,1.70
2023-06-28T11:06:49.769Z,1.50
2023-06-28T11:07:49.672Z,1.70
2023-06-28T11:08:49.665Z,1.50
2023-06-28T11:09:49.631Z,1.40
2023-06-28T11:10:49.638Z,1.70
2023-06-28T11:11:49.590Z,1.60
2023-06-28T11:12:49.580Z,1.80
2023-06-28T11:13:49.898Z,1.80
2023-06-28T11:14:49.546Z,1.50
2023-06-28T11:15:49.561Z,1.40
2023-06-28T11:16:49.514Z,1.50
2023-06-28T11:17:49.530Z,1.50
2023-06-28T11:18:49.461Z,1.70
2023-06-28T11:19:49.478Z,1.60
2023-06-28T11:20:49.466Z,1.50
2023-06-28T11:21:49.413Z,1.60
2023-06-28T11:22:49.390Z,1.40
2023-06-28T11:23:49.380Z,1.30
2023-06-28T11:24:49.392Z,1.40
2023-06-28T11:25:49.358Z,1.50
2023-06-28T11:26:49.315Z,1.50
2023-06-28T11:27:49.300Z,1.50
2023-06-28T11:28:49.281Z,1.50
2023-06-28T11:29:49.289Z,1.60
2023-06-28T11:30:49.288Z,1.70
2023-06-28T11:31:49.241Z,1.40
2023-06-28T11:32:49.271Z,1.80
2023-06-28T11:33:49.217Z,1.50
2023-06-28T11:34:49.200Z,1.50
2023-06-28T11:35:49.165Z,1.60
2023-06-28T11:36:49.205Z,1.50
2023-06-28T11:37:49.113Z,1.60
2023-06-28T11:38:49.124Z,1.50
2023-06-28T11:39:49.087Z,1.60
2023-06-28T11:40:49.059Z,1.60
2023-06-28T11:41:49.084Z,1.40
2023-06-28T11:42:49.194Z,1.60
2023-06-28T11:43:49.043Z,1.50
2023-06-28T11:44:48.992Z,1.60
2023-06-28T11:45:48.982Z,1.90
2023-06-28T11:46:48.954Z,1.70
2023-06-28T11:47:48.972Z,1.60
2023-06-28T11:48:48.947Z,1.60
2023-06-28T11:49:48.902Z,1.60
2023-06-28T11:50:48.884Z,1.70
2023-06-28T11:51:48.871Z,1.60
2023-06-28T11:52:48.884Z,1.80
2023-06-28T11:53:48.831Z,1.70
2023-06-28T11:54:48.817Z,1.60
2023-06-28T11:55:48.802Z,1.60
2023-06-28T11:56:48.804Z,1.40
2023-06-28T11:57:48.781Z,1.50
2023-06-28T11:58:48.838Z,1.70
2023-06-28T11:59:48.733Z,1.50
2023-06-28T12:00:48.698Z,1.50
2023-06-28T12:01:48.717Z,1.50
2023-06-28T12:02:48.743Z,1.80
2023-06-28T12:03:48.749Z,1.60
2023-06-28T12:04:48.698Z,1.60
2023-06-28T12:05:48.603Z,1.40
2023-06-28T12:06:48.646Z,1.70
2023-06-28T12:07:48.565Z,1.50
2023-06-28T12:08:48.553Z,1.60
2023-06-28T12:09:51.162Z,1.50
2023-06-28T12:10:48.556Z,1.60
2023-06-28T12:11:48.531Z,1.40
2023-06-28T12:12:48.475Z,1.50
2023-06-28T12:13:48.461Z,1.60
2023-06-28T12:14:48.447Z,1.70
2023-06-28T12:15:48.505Z,1.60
2023-06-28T12:16:48.404Z,1.70
2023-06-28T12:17:48.415Z,1.60
2023-06-28T12:18:48.370Z,1.60
2023-06-28T12:19:48.359Z,1.60
2023-06-28T12:20:48.393Z,1.60
2023-06-28T12:21:48.316Z,1.80
2023-06-28T12:22:48.293Z,1.70
2023-06-28T12:23:48.275Z,1.70
2023-06-28T12:24:48.262Z,1.60
2023-06-28T12:25:48.270Z,1.70
2023-06-28T12:26:48.222Z,1.60
2023-06-28T12:27:48.194Z,1.90
2023-06-28T12:28:49.184Z,1.70
2023-06-28T12:29:48.192Z,1.60
2023-06-28T12:30:48.170Z,1.60
2023-06-28T12:31:48.278Z,1.70
2023-06-28T12:32:48.175Z,1.50
2023-06-28T12:33:50.920Z,1.70
2023-06-28T12:34:48.117Z,1.60
2023-06-28T12:35:48.047Z,1.70
2023-06-28T12:36:49.032Z,1.70
2023-06-28T12:37:48.019Z,1.70
2023-06-28T12:38:48.023Z,1.70
2023-06-28T12:39:48.011Z,1.60
2023-06-28T12:40:47.957Z,1.70
2023-06-28T12:41:47.942Z,1.60
2023-06-28T12:42:47.922Z,1.60
2023-06-28T12:43:47.965Z,1.70
2023-06-28T12:44:47.886Z,2.10
2023-06-28T12:45:47.865Z,1.70
2023-06-28T12:46:47.847Z,1.50
2023-06-28T12:47:47.885Z,1.60
2023-06-28T12:48:47.846Z,1.80
2023-06-28T12:49:47.824Z,1.60
2023-06-28T12:50:47.778Z,2.30
2023-06-28T12:51:47.754Z,1.70
2023-06-28T12:52:47.777Z,1.80
2023-06-28T12:53:47.749Z,1.80
2023-06-28T12:54:47.699Z,1.80
2023-06-28T12:55:47.680Z,1.70
2023-06-28T12:56:47.681Z,1.50
2023-06-28T12:57:47.676Z,1.60
2023-06-28T12:58:47.633Z,2.00
2023-06-28T12:59:47.612Z,1.70
2023-06-28T13:00:47.590Z,1.70
2023-06-28T13:01:47.690Z,1.60
2023-06-28T13:02:47.633Z,1.70
2023-06-28T13:03:47.542Z,1.80
2023-06-28T13:04:47.563Z,1.70
2023-06-28T13:05:47.502Z,1.90
2023-06-28T13:06:47.506Z,1.80
2023-06-28T13:07:47.490Z,1.80
2023-06-28T13:08:47.455Z,1.80
2023-06-28T13:09:47.549Z,1.80
2023-06-28T13:10:47.409Z,1.70
2023-06-28T13:11:47.420Z,1.70
2023-06-28T13:12:47.367Z,1.70
2023-06-28T13:13:47.347Z,1.90
2023-06-28T13:14:47.331Z,1.80
2023-06-28T13:15:47.346Z,1.70
2023-06-28T13:16:47.324Z,2.00
2023-06-28T13:17:47.297Z,1.60
2023-06-28T13:18:47.254Z,1.70
2023-06-28T13:19:47.262Z,1.60
2023-06-28T13:20:47.260Z,1.90
2023-06-28T13:21:47.237Z,2.00
2023-06-28T13:22:47.174Z,1.80
2023-06-28T13:23:47.157Z,1.80
2023-06-28T13:24:47.153Z,2.00
2023-06-28T13:25:47.155Z,1.90
2023-06-28T13:26:47.112Z,1.80
2023-06-28T13:27:47.088Z,1.90
2023-06-28T13:28:47.111Z,1.90
2023-06-28T13:29:47.088Z,1.60
2023-06-28T13:30:47.082Z,1.70
2023-06-28T13:31:47.027Z,1.60
2023-06-28T13:32:47.042Z,1.70
2023-06-28T13:33:46.983Z,1.60
2023-06-28T13:34:46.995Z,1.70
2023-06-28T13:35:46.937Z,1.70
2023-06-28T13:36:46.920Z,1.60
2023-06-28T13:37:46.908Z,1.80
2023-06-28T13:38:46.875Z,2.10
2023-06-28T13:39:46.895Z,1.90
2023-06-28T13:40:46.843Z,1.80
2023-06-28T13:41:46.824Z,1.70
2023-06-28T13:42:46.824Z,1.70
2023-06-28T13:43:46.821Z,1.70
2023-06-28T13:44:46.790Z,1.60
2023-06-28T13:45:46.756Z,1.70
2023-06-28T13:46:46.804Z,1.60
2023-06-28T13:47:46.732Z,1.80
2023-06-28T13:48:46.719Z,1.80
2023-06-28T13:49:46.665Z,1.70
2023-06-28T13:50:46.655Z,1.80
2023-06-28T13:51:46.636Z,1.70
2023-06-28T13:52:46.621Z,1.80
2023-06-28T13:53:46.626Z,1.60
2023-06-28T13:54:46.570Z,1.60
2023-06-28T13:55:46.554Z,1.90
2023-06-28T13:56:46.530Z,1.90
2023-06-28T13:57:46.542Z,2.00
2023-06-28T13:58:46.521Z,1.90
2023-06-28T13:59:46.480Z,1.90
2023-06-28T14:00:47.617Z,2.10
2023-06-28T14:01:46.449Z,1.80
2023-06-28T14:02:46.598Z,1.90
2023-06-28T14:03:46.404Z,1.80
2023-06-28T14:04:46.380Z,1.70
2023-06-28T14:05:46.369Z,1.70
2023-06-28T14:06:46.372Z,1.70
2023-06-28T14:07:46.355Z,1.70
2023-06-28T14:08:46.315Z,1.60
2023-06-28T14:09:46.285Z,1.70
2023-06-28T14:10:46.266Z,1.70
2023-06-28T14:11:46.310Z,1.80
2023-06-28T14:12:46.229Z,1.70
2023-06-28T14:13:46.208Z,1.70
2023-06-28T14:14:46.191Z,2.00
2023-06-28T14:15:46.172Z,2.20
2023-06-28T14:16:46.195Z,2.30
2023-06-28T14:17:46.147Z,1.70
2023-06-28T14:18:46.113Z,1.60
2023-06-28T14:19:46.088Z,1.90
2023-06-28T14:20:46.119Z,1.70
2023-06-28T14:21:46.088Z,1.80
2023-06-28T14:22:46.036Z,1.80
2023-06-28T14:23:46.027Z,1.70
2023-06-28T14:24:45.999Z,1.80
2023-06-28T14:25:46.015Z,1.80
2023-06-28T14:26:45.966Z,1.70
2023-06-28T14:27:45.945Z,1.90
2023-06-28T14:28:45.938Z,1.60
2023-06-28T14:29:45.912Z,1.80
2023-06-28T14:30:45.951Z,1.60
2023-06-28T14:31:45.869Z,1.80
2023-06-28T14:32:45.884Z,1.70
2023-06-28T14:33:45.831Z,1.70
2023-06-28T14:34:45.853Z,1.90
2023-06-28T14:35:45.817Z,1.80
2023-06-28T14:36:45.778Z,1.90
2023-06-28T14:37:45.757Z,1.80
2023-06-28T14:38:45.739Z,1.60
2023-06-28T14:39:45.758Z,1.80
2023-06-28T14:40:45.703Z,1.60
2023-06-28T14:41:45.685Z,1.80
2023-06-28T14:42:45.679Z,1.80
2023-06-28T14:43:45.649Z,1.70
2023-06-28T14:44:45.661Z,1.90
2023-06-28T14:45:45.884Z,1.80
2023-06-28T14:46:45.595Z,1.70
2023-06-28T14:47:45.635Z,1.80
2023-06-28T14:48:45.610Z,1.80
2023-06-28T14:49:45.565Z,1.70
2023-06-28T14:50:45.521Z,2.00
2023-06-28T14:51:45.504Z,1.70
2023-06-28T14:52:45.487Z,1.90
2023-06-28T14:53:45.510Z,2.00
2023-06-28T14:54:45.449Z,1.80
2023-06-28T14:55:45.556Z,1.90
2023-06-28T14:56:45.404Z,1.90
2023-06-28T14:57:45.423Z,1.80
2023-06-28T14:58:45.400Z,1.70
2023-06-28T14:59:45.998Z,1.80
2023-06-28T15:00:46.415Z,1.70
2023-06-28T15:01:45.348Z,1.90
2023-06-28T15:02:45.415Z,1.60
2023-06-28T15:03:45.439Z,1.80
2023-06-28T15:04:45.276Z,1.80
2023-06-28T15:05:45.490Z,1.80
2023-06-28T15:06:45.224Z,1.70
2023-06-28T15:07:45.234Z,2.00
2023-06-28T15:08:45.190Z,1.80
2023-06-28T15:09:45.176Z,1.80
2023-06-28T15:10:45.149Z,1.80
2023-06-28T15:11:45.167Z,1.90
2023-06-28T15:12:45.143Z,1.80
2023-06-28T15:13:45.100Z,2.00
2023-06-28T15:14:45.082Z,1.90
2023-06-28T15:15:45.451Z,1.80
2023-06-28T15:16:45.106Z,1.90
2023-06-28T15:17:45.089Z,1.80
2023-06-28T15:19:05.899Z,2.10
2023-06-28T15:20:05.912Z,1.90
2023-06-28T15:21:05.922Z,1.90
2023-06-28T15:22:05.899Z,1.80
2023-06-28T15:23:05.852Z,1.70
2023-06-28T15:24:06.968Z,2.30
2023-06-28T15:25:06.946Z,1.90
2023-06-28T15:26:06.986Z,1.80
2023-06-28T15:27:06.913Z,1.90
2023-06-28T15:28:06.890Z,1.90
2023-06-28T15:29:06.876Z,1.90
2023-06-28T15:30:06.867Z,3.10
2023-06-28T15:31:06.862Z,2.30
2023-06-28T15:32:06.820Z,1.90
2023-06-28T15:33:06.814Z,2.00
2023-06-28T15:34:06.777Z,2.80
2023-06-28T15:35:06.783Z,4.60
2023-06-28T15:36:06.770Z,2.00
2023-06-28T15:37:06.714Z,1.80
2023-06-28T15:38:06.702Z,1.70
2023-06-28T15:39:06.681Z,2.00
2023-06-28T15:40:06.708Z,1.90
2023-06-28T15:41:06.695Z,1.90
2023-06-28T15:42:06.621Z,2.10
2023-06-28T15:43:06.609Z,1.90
2023-06-28T15:44:06.588Z,1.80
2023-06-28T15:45:06.604Z,2.10
2023-06-28T15:46:06.600Z,1.80
2023-06-28T15:47:06.539Z,1.90
2023-06-28T15:48:06.628Z,2.00
2023-06-28T15:49:06.620Z,1.90
2023-06-28T15:50:06.574Z,1.80
2023-06-28T15:51:06.473Z,2.00
2023-06-28T15:52:06.448Z,2.00
2023-06-28T15:53:06.423Z,1.90
2023-06-28T15:54:06.440Z,2.00
2023-06-28T15:55:06.391Z,1.90
2023-06-28T15:56:06.366Z,1.70
2023-06-28T15:57:06.347Z,1.90
2023-06-28T15:58:06.332Z,1.90
2023-06-28T15:59:06.344Z,1.90
2023-06-28T16:00:06.301Z,1.90
2023-06-28T16:01:06.277Z,2.00
2023-06-28T16:02:06.261Z,1.80
2023-06-28T16:03:06.365Z,1.70
2023-06-28T16:04:06.406Z,1.80
2023-06-28T16:05:06.196Z,1.80
2023-06-28T16:06:06.188Z,1.80
2023-06-28T16:07:06.221Z,1.80
2023-06-28T16:08:06.167Z,1.70
2023-06-28T16:09:06.140Z,1.90
2023-06-28T16:10:06.106Z,1.90
2023-06-28T16:11:06.090Z,1.80
2023-06-28T16:12:06.103Z,1.90
2023-06-28T16:13:06.081Z,1.70
2023-06-28T16:14:06.027Z,1.80
2023-06-28T16:15:06.013Z,1.90
2023-06-28T16:16:06.004Z,1.80
2023-06-28T16:17:06.034Z,1.80
2023-06-28T16:18:05.986Z,2.00
2023-06-28T16:19:05.938Z,1.80
2023-06-28T16:20:05.913Z,2.00
2023-06-28T16:21:05.893Z,1.90
2023-06-28T16:22:05.911Z,1.90
2023-06-28T16:23:05.857Z,2.10
2023-06-28T16:24:05.839Z,1.90
2023-06-28T16:25:06.835Z,2.00
2023-06-28T16:26:05.837Z,1.90
2023-06-28T16:27:05.814Z,2.00
2023-06-28T16:28:05.770Z,1.80
2023-06-28T16:29:05.754Z,1.80
2023-06-28T16:30:05.748Z,1.90
2023-06-28T16:31:05.765Z,1.80
2023-06-28T16:32:05.695Z,1.70
2023-06-28T16:33:05.795Z,1.80
2023-06-28T16:34:05.667Z,1.90
2023-06-28T16:35:05.636Z,1.90
2023-06-28T16:36:05.640Z,1.90
2023-06-28T16:37:05.594Z,1.90
2023-06-28T16:38:05.580Z,1.80
2023-06-28T16:39:05.561Z,1.80
2023-06-28T16:40:05.563Z,1.90
2023-06-28T16:41:05.555Z,1.90
2023-06-28T16:42:05.496Z,2.00
2023-06-28T16:43:05.476Z,1.80
2023-06-28T16:44:06.212Z,1.80
2023-06-28T16:45:05.467Z,1.60
2023-06-28T16:46:05.422Z,1.90
2023-06-28T16:47:05.397Z,2.00
2023-06-28T16:48:05.485Z,1.90
2023-06-28T16:49:05.361Z,2.20
2023-06-28T16:50:05.366Z,1.90
2023-06-28T16:51:05.322Z,2.20
2023-06-28T16:52:05.334Z,2.00
2023-06-28T16:53:05.285Z,1.90
2023-06-28T16:54:05.292Z,1.90
2023-06-28T16:55:05.272Z,2.00
2023-06-28T16:56:05.306Z,1.90
2023-06-28T16:57:05.216Z,1.90
2023-06-28T16:58:05.191Z,2.00
2023-06-28T16:59:05.201Z,1.70
2023-06-28T17:00:05.154Z,1.90
2023-06-28T17:01:05.185Z,1.80
2023-06-28T17:02:05.149Z,2.00
2023-06-28T17:03:05.277Z,2.00
2023-06-28T17:04:05.104Z,2.30
2023-06-28T17:05:05.055Z,1.90
2023-06-28T17:06:05.036Z,2.00
2023-06-28T17:07:05.087Z,2.00
2023-06-28T17:08:05.031Z,2.10
2023-06-28T17:09:05.717Z,1.90
2023-06-28T17:10:04.966Z,2.00
2023-06-28T17:11:04.946Z,2.20
2023-06-28T17:12:04.921Z,2.10
2023-06-28T17:13:04.937Z,2.00
2023-06-28T17:14:04.899Z,2.10
2023-06-28T17:15:04.874Z,2.20
2023-06-28T17:16:04.871Z,2.20
2023-06-28T17:17:04.835Z,1.70
2023-06-28T17:18:04.899Z,1.90
2023-06-28T17:19:04.789Z,1.90
2023-06-28T17:22:01.941Z,2.00
2023-06-28T17:23:01.951Z,2.00
2023-06-28T17:24:01.904Z,2.00
2023-06-28T17:25:03.024Z,2.00
2023-06-28T17:26:03.005Z,2.30
2023-06-28T17:27:03.016Z,2.20
2023-06-28T17:28:02.953Z,2.10
2023-06-28T17:29:02.963Z,2.10
2023-06-28T17:30:03.034Z,2.30
2023-06-28T17:31:03.935Z,2.20
2023-06-28T17:32:02.935Z,2.30
2023-06-28T17:33:02.910Z,2.30
2023-06-28T17:34:03.720Z,2.20
2023-06-28T17:35:02.840Z,2.40
2023-06-28T17:36:02.837Z,2.30
2023-06-28T17:37:02.787Z,2.30
2023-06-28T17:38:02.785Z,2.20
2023-06-28T17:39:02.763Z,2.40
2023-06-28T17:40:02.730Z,2.60
2023-06-28T17:41:02.741Z,2.50
2023-06-28T17:42:02.690Z,2.50
2023-06-28T17:43:02.668Z,2.40
2023-06-28T17:44:03.608Z,2.40
2023-06-28T17:45:02.654Z,2.50
2023-06-28T17:46:02.645Z,2.60
2023-06-28T17:47:02.591Z,2.40
2023-06-28T17:48:02.618Z,2.20
2023-06-28T17:49:02.560Z,2.40
2023-06-28T17:50:02.609Z,2.40
2023-06-28T17:51:02.532Z,2.50
2023-06-28T17:52:02.495Z,2.60
2023-06-28T17:53:02.485Z,2.20
2023-06-28T17:54:02.458Z,2.20
2023-06-28T17:55:02.471Z,2.40
2023-06-28T17:56:02.439Z,2.40
2023-06-28T17:57:03.098Z,2.50
2023-06-28T17:58:02.381Z,2.30
2023-06-28T17:59:03.220Z,2.50
2023-06-28T18:00:02.397Z,2.50
2023-06-28T18:01:02.337Z,2.40
2023-06-28T18:02:02.446Z,2.20
2023-06-28T18:03:02.319Z,2.50
2023-06-28T18:04:02.304Z,2.50
2023-06-28T18:05:02.285Z,2.30
2023-06-28T18:06:03.241Z,2.40
2023-06-28T18:07:02.243Z,2.40
2023-06-28T18:08:02.242Z,2.40
2023-06-28T18:09:02.216Z,2.50
2023-06-28T18:10:02.158Z,2.30
2023-06-28T18:11:02.140Z,2.50
2023-06-28T18:12:02.146Z,2.50
2023-06-28T18:13:02.144Z,2.30
2023-06-28T18:14:02.114Z,2.20
2023-06-28T18:15:02.072Z,2.20
2023-06-28T18:16:02.061Z,2.30
2023-06-28T18:17:02.043Z,2.50
2023-06-28T18:18:02.095Z,2.40
2023-06-28T18:19:01.993Z,2.40
2023-06-28T18:20:01.995Z,2.20
2023-06-28T18:21:02.801Z,2.30
2023-06-28T18:22:02.933Z,2.30
2023-06-28T18:23:01.954Z,2.30
2023-06-28T18:24:01.918Z,2.10
2023-06-28T18:25:01.915Z,2.30
2023-06-28T18:26:01.884Z,2.20
2023-06-28T18:27:01.878Z,2.30
2023-06-28T18:28:01.878Z,2.10
2023-06-28T18:29:01.802Z,2.30
2023-06-28T18:30:02.810Z,2.40
2023-06-28T18:31:01.846Z,2.20
2023-06-28T18:32:01.805Z,2.30
2023-06-28T18:33:01.818Z,2.30
2023-06-28T18:34:01.717Z,2.30
2023-06-28T18:35:01.728Z,2.00
2023-06-28T18:36:01.680Z,2.20
2023-06-28T18:37:01.687Z,2.30
2023-06-28T18:38:01.639Z,2.20
2023-06-28T18:39:01.616Z,2.20
2023-06-28T18:40:01.659Z,2.30
2023-06-28T18:41:01.617Z,2.40
2023-06-28T18:42:01.592Z,2.30
2023-06-28T18:43:01.539Z,2.20
2023-06-28T18:44:01.526Z,2.10
2023-06-28T18:45:01.509Z,2.40
2023-06-28T18:46:01.515Z,2.10
2023-06-28T18:47:01.477Z,2.00
2023-06-28T18:48:01.484Z,2.20
2023-06-28T18:49:01.432Z,2.20
2023-06-28T18:50:01.413Z,2.30
2023-06-28T18:51:02.048Z,2.20
2023-06-28T18:52:01.371Z,2.00
2023-06-28T18:53:01.344Z,2.40
2023-06-28T18:54:01.333Z,2.00
2023-06-28T18:55:01.374Z,2.10
2023-06-28T18:56:01.335Z,2.30
2023-06-28T18:57:01.265Z,2.20
2023-06-28T18:58:01.254Z,2.10
2023-06-28T18:59:01.230Z,2.20
2023-06-28T19:00:01.291Z,2.10
2023-06-28T19:01:01.288Z,2.20
2023-06-28T19:02:01.446Z,2.10
2023-06-28T19:03:01.174Z,2.20
2023-06-28T19:04:01.149Z,2.20
2023-06-28T19:05:01.145Z,2.30
2023-06-28T19:06:01.104Z,2.10
2023-06-28T19:07:01.078Z,2.30
2023-06-28T19:08:01.045Z,2.30
2023-06-28T19:09:01.058Z,2.30
2023-06-28T19:10:01.041Z,2.10
2023-06-28T19:11:00.998Z,2.30
2023-06-28T19:12:01.150Z,2.50
2023-06-28T19:13:01.942Z,2.30
2023-06-28T19:14:00.968Z,2.20
2023-06-28T19:15:00.912Z,2.30
2023-06-28T19:16:00.889Z,2.30
2023-06-28T19:17:00.879Z,2.20
2023-06-28T19:18:00.943Z,2.40
2023-06-28T19:19:00.848Z,2.20
2023-06-28T19:20:00.806Z,2.30
2023-06-28T19:21:01.709Z,2.30
2023-06-28T19:22:00.784Z,2.10
2023-06-28T19:23:00.771Z,2.50
2023-06-28T19:24:00.751Z,2.30
2023-06-28T19:25:00.703Z,2.10
2023-06-28T19:26:00.684Z,2.30
2023-06-28T19:27:00.681Z,2.30
2023-06-28T19:28:00.688Z,2.40
2023-06-28T19:29:00.622Z,2.40
2023-06-28T19:30:00.605Z,2.30
2023-06-28T19:31:00.661Z,2.30
2023-06-28T19:32:00.565Z,2.40
2023-06-28T19:33:00.639Z,2.40
2023-06-28T19:34:00.533Z,2.30
2023-06-28T19:35:00.503Z,2.60
2023-06-28T19:36:00.493Z,1.90
2023-06-28T19:37:00.489Z,2.30
2023-06-28T19:38:00.486Z,2.10
2023-06-28T19:39:00.440Z,2.20
2023-06-28T19:40:00.395Z,2.40
2023-06-28T19:41:00.375Z,2.30
2023-06-28T19:42:00.412Z,2.20
2023-06-28T19:43:00.337Z,2.10
2023-06-28T19:44:00.336Z,2.20
2023-06-28T19:45:00.308Z,2.30
2023-06-28T19:46:00.305Z,2.30
2023-06-28T19:47:00.310Z,2.20
2023-06-28T19:48:00.284Z,2.40
2023-06-28T19:49:00.222Z,2.30
2023-06-28T19:50:00.289Z,2.30
2023-06-28T19:51:00.221Z,2.10
2023-06-28T19:52:00.492Z,2.40
2023-06-28T19:53:01.124Z,2.30
2023-06-28T19:54:00.192Z,2.10
2023-06-28T19:55:00.081Z,2.10
2023-06-28T19:56:00.114Z,2.20
2023-06-28T19:57:00.045Z,2.20
2023-06-28T19:58:00.019Z,2.20
2023-06-28T19:59:00.009Z,2.50
2023-06-28T20:00:00.006Z,2.40
2023-06-28T20:00:59.982Z,2.40
2023-06-28T20:02:00.082Z,2.40
2023-06-28T20:02:59.955Z,2.30
2023-06-28T20:03:59.919Z,2.50
2023-06-28T20:04:59.895Z,2.20
2023-06-28T20:05:59.849Z,2.30
2023-06-28T20:07:00.845Z,2.50
2023-06-28T20:08:01.883Z,2.20
2023-06-28T20:09:00.792Z,2.50